Alsace — PB4786 — position and weather

sailwx.info

Track history (hours):
 
Tides and Currents Weather Stations Pressure Air Temp Water Temp Dewpoint Dewpoint Depression Visibility Wind Speed Wind Dir Waves Ship Positions

Alsace

Last reported at 2015-Mar-03 06:33 UTC. Time now 2015-Mar-03 07:24 UTC.
Position N 47°39' E 007°32'.

Length 178 m.

Type: Ship. MMSI: 244660556.

Date/timePositionNaut miles runAvg speedWind from/ knotsBaromVisibWave heightAir tempDewpointWater temp
2015-Mar-03 06:33N 47°39' E 007°32'283 9.6
2015-Mar-02 01:11N 51°53' E 004°16'23815.0
2015-Mar-01 09:21N 48°39' E 007°52'2 3.1
2015-Mar-01 08:33N 48°41' E 007°55'5 4.3
2015-Mar-01 07:30N 48°45' E 007°58'5 5.8
2015-Mar-01 06:33N 48°48' E 008°05'4 3.7
2015-Mar-01 05:33N 48°52' E 008°07'3 3.3
2015-Mar-01 04:33N 48°55' E 008°09'4 3.5
2015-Mar-01 03:33N 48°58' E 008°12'4 3.5
2015-Mar-01 02:33N 48°59' E 008°17'4 3.7
2015-Mar-01 01:33N 49°03' E 008°18'4 3.7
2015-Mar-01 00:34N 49°06' E 008°22'4 3.7
2015-Feb-28 23:34N 49°10' E 008°22'3 3.4
2015-Feb-28 22:33N 49°13' E 008°23'4 3.6
2015-Feb-28 21:33N 49°16' E 008°27'3 2.9
2015-Feb-28 20:33N 49°19' E 008°28'4 3.6
2015-Feb-28 19:31N 49°22' E 008°30'122 3.8
2015-Feb-27 11:33N 51°07' E 006°52'3 2.6
2015-Feb-27 10:33N 51°09' E 006°49'4 3.6
2015-Feb-27 09:33N 51°11' E 006°45'3 2.7
2015-Feb-27 08:33N 51°13' E 006°46'40 3.6
2015-Feb-26 21:14N 51°49' E 006°16'13 4.6
2015-Feb-26 18:23N 51°52' E 005°55'4 4.1
2015-Feb-26 17:32N 51°52' E 005°50'0 0.1
2015-Feb-26 16:33N 51°52' E 005°50'0 0.1
2015-Feb-26 15:32N 51°52' E 005°50'0 0.0
2015-Feb-26 14:32N 51°52' E 005°50'0 0.0
2015-Feb-26 13:32N 51°52' E 005°50'0 0.0
2015-Feb-26 12:33N 51°52' E 005°50'0 0.1
2015-Feb-26 11:33N 51°52' E 005°50'0 0.0
2015-Feb-26 10:29N 51°52' E 005°50'0 0.0
2015-Feb-26 06:31N 51°52' E 005°50'1 0.6
2015-Feb-26 05:30N 51°52' E 005°49'6 6.0
2015-Feb-26 04:33N 51°54' E 005°40'6 5.9
2015-Feb-26 03:33N 51°53' E 005°31'5 5.4
2015-Feb-26 02:33N 51°50' E 005°24'5 4.5
2015-Feb-26 01:33N 51°49' E 005°17'6 6.0
2015-Feb-26 00:33N 51°49' E 005°07'7 6.7
2015-Feb-25 23:33N 51°50' E 004°56'7 7.1
2015-Feb-25 22:34N 51°49' E 004°45'7 6.8
2015-Feb-25 21:34N 51°49' E 004°34'8 8.3
2015-Feb-25 20:33N 51°51' E 004°21'2 2.4
2015-Feb-25 19:34N 51°53' E 004°24'0 0.0
2015-Feb-25 18:33N 51°53' E 004°24'0 0.0
2015-Feb-25 17:34N 51°53' E 004°24'0 0.0
2015-Feb-25 16:33N 51°53' E 004°24'0 0.0
2015-Feb-25 15:33N 51°53' E 004°24'0 0.0
2015-Feb-25 14:33N 51°53' E 004°24'0 0.0
2015-Feb-25 13:34N 51°53' E 004°24'0 0.1
2015-Feb-25 12:33N 51°53' E 004°24'4 3.6
2015-Feb-25 11:33N 51°54' E 004°29'0 0.0
2015-Feb-25 10:33N 51°54' E 004°29'2 2.3
2015-Feb-25 09:34N 51°54' E 004°25'1 1.3
2015-Feb-25 08:33N 51°53' E 004°25'0 0.0
2015-Feb-25 07:33N 51°53' E 004°25'0 0.1
2015-Feb-25 06:33N 51°53' E 004°25'1 0.9
2015-Feb-25 05:33N 51°53' E 004°24'1 1.3
2015-Feb-25 04:33N 51°54' E 004°26'6 5.5
2015-Feb-25 03:33N 51°52' E 004°17'2 2.2
2015-Feb-25 02:33N 51°53' E 004°14'3 3.2
2015-Feb-25 01:33N 51°55' E 004°11'5 4.8
2015-Feb-25 00:33N 51°58' E 004°04'1 1.0
2015-Feb-24 23:33N 51°58' E 004°03'0 0.0
2015-Feb-24 22:33N 51°58' E 004°03'2 2.2
2015-Feb-24 21:33N 51°56' E 004°02'1 0.5
2015-Feb-24 20:33N 51°57' E 004°02'0 0.1
2015-Feb-24 19:33N 51°57' E 004°02'0 0.0
2015-Feb-24 18:33N 51°57' E 004°02'0 0.0
2015-Feb-24 17:33N 51°57' E 004°02'0 0.0
2015-Feb-24 16:33N 51°57' E 004°02'1 1.1
2015-Feb-24 15:33N 51°58' E 004°03'0 0.0
2015-Feb-24 14:33N 51°58' E 004°03'0 0.1
2015-Feb-24 13:33N 51°58' E 004°03'0 0.0
2015-Feb-24 12:33N 51°58' E 004°03'4 4.2
2015-Feb-24 11:33N 51°56' E 004°10'4 4.4
2015-Feb-24 10:33N 51°53' E 004°14'5 5.0
2015-Feb-24 09:33N 51°54' E 004°22'2 1.5
2015-Feb-24 08:33N 51°53' E 004°24'0 0.0
2015-Feb-24 07:33N 51°53' E 004°24'0 0.4
2015-Feb-24 06:33N 51°53' E 004°24'0 0.3
2015-Feb-24 05:33N 51°53' E 004°25'0 0.0
2015-Feb-24 04:33N 51°53' E 004°25'0 0.0
2015-Feb-24 03:33N 51°53' E 004°25'0 0.0
2015-Feb-24 02:33N 51°53' E 004°25'0 0.0
2015-Feb-24 01:33N 51°53' E 004°25'0 0.0
2015-Feb-24 00:33N 51°53' E 004°25'0 0.0
2015-Feb-23 23:33N 51°53' E 004°25'0 0.0
2015-Feb-23 22:33N 51°53' E 004°25'1 0.9
2015-Feb-23 21:34N 51°53' E 004°24'1 1.1
2015-Feb-23 20:33N 51°53' E 004°25'3 3.3
2015-Feb-23 19:33N 51°55' E 004°30'6 6.3
2015-Feb-23 18:33N 51°52' E 004°39'6 6.3
2015-Feb-23 17:34N 51°49' E 004°48'9 9.1
2015-Feb-23 16:34N 51°49' E 005°02'9 9.3
2015-Feb-23 15:33N 51°49' E 005°18'8 8.1
2015-Feb-23 14:34N 51°53' E 005°29'13 1.8
2015-Feb-23 07:21N 51°52' E 005°50'0 0.0
2015-Feb-23 05:30N 51°52' E 005°50'1 0.3
2015-Feb-23 00:32N 51°51' E 005°52'47 6.7
2015-Feb-22 17:33N 51°16' E 006°42'6 6.0
2015-Feb-22 16:34N 51°11' E 006°46'7 6.6
2015-Feb-22 15:33N 51°06' E 006°53'12 8.0
2015-Feb-22 14:04N 50°55' E 006°59'111 7.1
2015-Feb-21 22:33N 49°20' E 008°27'7 7.3
2015-Feb-21 21:33N 49°13' E 008°23'9 9.4
2015-Feb-21 20:34N 49°04' E 008°19'10 9.3
2015-Feb-21 19:31N 48°56' E 008°11'7 5.3
2015-Feb-21 18:11N 48°50' E 008°07'7 7.5
2015-Feb-21 17:13N 48°45' E 007°58'5 4.2
2015-Feb-21 16:04N 48°41' E 007°55'  
Track history (hours):
 
Tides and Currents Weather Stations Pressure Air Temp Water Temp Dewpoint Dewpoint Depression Visibility Wind Speed Wind Dir Waves Ship Positions

Alsace

Last reported at 2015-Mar-03 06:33 UTC. Time now 2015-Mar-03 07:24 UTC.
Position N 47°39' E 007°32'.

Length 178 m.

Type: Ship. MMSI: 244660556.

Date/timePositionNaut miles runAvg speedWind from/ knotsBaromVisibWave heightAir tempDewpointWater temp
2015-Mar-03 06:33N 47°39' E 007°32'283 9.6
2015-Mar-02 01:11N 51°53' E 004°16'23815.0
2015-Mar-01 09:21N 48°39' E 007°52'2 3.1
2015-Mar-01 08:33N 48°41' E 007°55'5 4.3
2015-Mar-01 07:30N 48°45' E 007°58'5 5.8
2015-Mar-01 06:33N 48°48' E 008°05'4 3.7
2015-Mar-01 05:33N 48°52' E 008°07'3 3.3
2015-Mar-01 04:33N 48°55' E 008°09'4 3.5
2015-Mar-01 03:33N 48°58' E 008°12'4 3.5
2015-Mar-01 02:33N 48°59' E 008°17'4 3.7
2015-Mar-01 01:33N 49°03' E 008°18'4 3.7
2015-Mar-01 00:34N 49°06' E 008°22'4 3.7
2015-Feb-28 23:34N 49°10' E 008°22'3 3.4
2015-Feb-28 22:33N 49°13' E 008°23'4 3.6
2015-Feb-28 21:33N 49°16' E 008°27'3 2.9
2015-Feb-28 20:33N 49°19' E 008°28'4 3.6
2015-Feb-28 19:31N 49°22' E 008°30'122 3.8
2015-Feb-27 11:33N 51°07' E 006°52'3 2.6
2015-Feb-27 10:33N 51°09' E 006°49'4 3.6
2015-Feb-27 09:33N 51°11' E 006°45'3 2.7
2015-Feb-27 08:33N 51°13' E 006°46'40 3.6
2015-Feb-26 21:14N 51°49' E 006°16'13 4.6
2015-Feb-26 18:23N 51°52' E 005°55'4 4.1
2015-Feb-26 17:32N 51°52' E 005°50'0 0.1
2015-Feb-26 16:33N 51°52' E 005°50'0 0.1
2015-Feb-26 15:32N 51°52' E 005°50'0 0.0
2015-Feb-26 14:32N 51°52' E 005°50'0 0.0
2015-Feb-26 13:32N 51°52' E 005°50'0 0.0
2015-Feb-26 12:33N 51°52' E 005°50'0 0.1
2015-Feb-26 11:33N 51°52' E 005°50'0 0.0
2015-Feb-26 10:29N 51°52' E 005°50'0 0.0
2015-Feb-26 06:31N 51°52' E 005°50'1 0.6
2015-Feb-26 05:30N 51°52' E 005°49'6 6.0
2015-Feb-26 04:33N 51°54' E 005°40'6 5.9
2015-Feb-26 03:33N 51°53' E 005°31'5 5.4
2015-Feb-26 02:33N 51°50' E 005°24'5 4.5
2015-Feb-26 01:33N 51°49' E 005°17'6 6.0
2015-Feb-26 00:33N 51°49' E 005°07'7 6.7
2015-Feb-25 23:33N 51°50' E 004°56'7 7.1
2015-Feb-25 22:34N 51°49' E 004°45'7 6.8
2015-Feb-25 21:34N 51°49' E 004°34'8 8.3
2015-Feb-25 20:33N 51°51' E 004°21'2 2.4
2015-Feb-25 19:34N 51°53' E 004°24'0 0.0
2015-Feb-25 18:33N 51°53' E 004°24'0 0.0
2015-Feb-25 17:34N 51°53' E 004°24'0 0.0
2015-Feb-25 16:33N 51°53' E 004°24'0 0.0
2015-Feb-25 15:33N 51°53' E 004°24'0 0.0
2015-Feb-25 14:33N 51°53' E 004°24'0 0.0
2015-Feb-25 13:34N 51°53' E 004°24'0 0.1
2015-Feb-25 12:33N 51°53' E 004°24'4 3.6
2015-Feb-25 11:33N 51°54' E 004°29'0 0.0
2015-Feb-25 10:33N 51°54' E 004°29'2 2.3
2015-Feb-25 09:34N 51°54' E 004°25'1 1.3
2015-Feb-25 08:33N 51°53' E 004°25'0 0.0
2015-Feb-25 07:33N 51°53' E 004°25'0 0.1
2015-Feb-25 06:33N 51°53' E 004°25'1 0.9
2015-Feb-25 05:33N 51°53' E 004°24'1 1.3
2015-Feb-25 04:33N 51°54' E 004°26'6 5.5
2015-Feb-25 03:33N 51°52' E 004°17'2 2.2
2015-Feb-25 02:33N 51°53' E 004°14'3 3.2
2015-Feb-25 01:33N 51°55' E 004°11'5 4.8
2015-Feb-25 00:33N 51°58' E 004°04'1 1.0
2015-Feb-24 23:33N 51°58' E 004°03'0 0.0
2015-Feb-24 22:33N 51°58' E 004°03'2 2.2
2015-Feb-24 21:33N 51°56' E 004°02'1 0.5
2015-Feb-24 20:33N 51°57' E 004°02'0 0.1
2015-Feb-24 19:33N 51°57' E 004°02'0 0.0
2015-Feb-24 18:33N 51°57' E 004°02'0 0.0
2015-Feb-24 17:33N 51°57' E 004°02'0 0.0
2015-Feb-24 16:33N 51°57' E 004°02'1 1.1
2015-Feb-24 15:33N 51°58' E 004°03'0 0.0
2015-Feb-24 14:33N 51°58' E 004°03'0 0.1
2015-Feb-24 13:33N 51°58' E 004°03'0 0.0
2015-Feb-24 12:33N 51°58' E 004°03'4 4.2
2015-Feb-24 11:33N 51°56' E 004°10'4 4.4
2015-Feb-24 10:33N 51°53' E 004°14'5 5.0
2015-Feb-24 09:33N 51°54' E 004°22'2 1.5
2015-Feb-24 08:33N 51°53' E 004°24'0 0.0
2015-Feb-24 07:33N 51°53' E 004°24'0 0.4
2015-Feb-24 06:33N 51°53' E 004°24'0 0.3
2015-Feb-24 05:33N 51°53' E 004°25'0 0.0
2015-Feb-24 04:33N 51°53' E 004°25'0 0.0
2015-Feb-24 03:33N 51°53' E 004°25'0 0.0
2015-Feb-24 02:33N 51°53' E 004°25'0 0.0
2015-Feb-24 01:33N 51°53' E 004°25'0 0.0
2015-Feb-24 00:33N 51°53' E 004°25'0 0.0
2015-Feb-23 23:33N 51°53' E 004°25'0 0.0
2015-Feb-23 22:33N 51°53' E 004°25'1 0.9
2015-Feb-23 21:34N 51°53' E 004°24'1 1.1
2015-Feb-23 20:33N 51°53' E 004°25'3 3.3
2015-Feb-23 19:33N 51°55' E 004°30'6 6.3
2015-Feb-23 18:33N 51°52' E 004°39'6 6.3
2015-Feb-23 17:34N 51°49' E 004°48'9 9.1
2015-Feb-23 16:34N 51°49' E 005°02'9 9.3
2015-Feb-23 15:33N 51°49' E 005°18'8 8.1
2015-Feb-23 14:34N 51°53' E 005°29'13 1.8
2015-Feb-23 07:21N 51°52' E 005°50'0 0.0
2015-Feb-23 05:30N 51°52' E 005°50'1 0.3
2015-Feb-23 00:32N 51°51' E 005°52'47 6.7
2015-Feb-22 17:33N 51°16' E 006°42'6 6.0
2015-Feb-22 16:34N 51°11' E 006°46'7 6.6
2015-Feb-22 15:33N 51°06' E 006°53'12 8.0
2015-Feb-22 14:04N 50°55' E 006°59'111 7.1
2015-Feb-21 22:33N 49°20' E 008°27'7 7.3
2015-Feb-21 21:33N 49°13' E 008°23'9 9.4
2015-Feb-21 20:34N 49°04' E 008°19'10 9.3
2015-Feb-21 19:31N 48°56' E 008°11'7 5.3
2015-Feb-21 18:11N 48°50' E 008°07'7 7.5
2015-Feb-21 17:13N 48°45' E 007°58'5 4.2
2015-Feb-21 16:04N 48°41' E 007°55'  

Dump ship's entire track history